createdAt,value
2018-12-23T00:01:57.394Z,100080.81
2018-12-23T00:06:01.393Z,100082.56
2018-12-23T00:10:05.151Z,100088.23
2018-12-23T00:14:08.735Z,100069.78
2018-12-23T00:18:12.263Z,100080.23
2018-12-23T00:22:15.822Z,100079.37
2018-12-23T00:26:19.368Z,100077.58
2018-12-23T00:30:23.213Z,100081.05
2018-12-23T00:34:26.680Z,100094.13
2018-12-23T00:38:30.231Z,100101.97
2018-12-23T00:42:33.729Z,100105.84
2018-12-23T00:46:37.215Z,100111.50
2018-12-23T00:50:40.848Z,100110.59
2018-12-23T00:54:44.440Z,100113.23
2018-12-23T00:58:48.104Z,100117.55
2018-12-23T01:02:51.719Z,100125.84
2018-12-23T01:06:55.296Z,100135.50
2018-12-23T01:10:58.795Z,100134.59
2018-12-23T01:15:02.256Z,100137.20
2018-12-23T01:19:05.860Z,100131.53
2018-12-23T01:23:09.304Z,100136.81
2018-12-23T01:27:12.885Z,100132.41
2018-12-23T01:31:16.347Z,100143.81
2018-12-23T01:35:19.868Z,100141.19
2018-12-23T01:39:23.479Z,100144.74
2018-12-23T01:43:27.054Z,100147.78
2018-12-23T01:47:30.531Z,100154.78
2018-12-23T01:51:34.008Z,100160.03
2018-12-23T01:55:37.497Z,100157.43
2018-12-23T01:59:41.006Z,100162.30
2018-12-23T02:03:44.722Z,100153.58
2018-12-23T02:07:48.213Z,100166.23
2018-12-23T02:11:51.700Z,100171.55
2018-12-23T02:15:55.215Z,100175.09
2018-12-23T02:19:58.875Z,100172.87
2018-12-23T02:24:02.370Z,100181.66
2018-12-23T02:28:05.856Z,100178.19
2018-12-23T02:32:09.500Z,100196.63
2018-12-23T02:36:12.962Z,100201.41
2018-12-23T02:40:16.551Z,100200.11
2018-12-23T02:44:20.656Z,100206.64
2018-12-23T02:48:24.367Z,100202.65
2018-12-23T02:52:27.974Z,100209.22
2018-12-23T02:56:31.633Z,100195.19
2018-12-23T03:00:35.102Z,100195.59
2018-12-23T03:04:38.598Z,100195.56
2018-12-23T03:08:42.260Z,100188.07
2018-12-23T03:12:45.974Z,100193.67
2018-12-23T03:16:49.518Z,100188.83
2018-12-23T03:20:53.032Z,100191.43
2018-12-23T03:24:56.520Z,100191.43
2018-12-23T03:29:00.005Z,100186.63
2018-12-23T03:33:03.577Z,100184.38
2018-12-23T03:37:07.036Z,100176.85
2018-12-23T03:41:10.564Z,100178.58
2018-12-23T03:45:14.014Z,100184.64
2018-12-23T03:49:17.943Z,100205.62
2018-12-23T03:53:21.516Z,100208.62
2018-12-23T03:57:25.092Z,100214.25
2018-12-23T04:01:28.547Z,100225.66
2018-12-23T04:05:32.190Z,100230.02
2018-12-23T04:09:35.737Z,100232.22
2018-12-23T04:13:39.170Z,100222.53
2018-12-23T04:17:42.624Z,100222.94
2018-12-23T04:22:33.759Z,100217.81
2018-12-23T04:26:38.466Z,100218.94
2018-12-23T04:30:43.207Z,100223.75
2018-12-23T04:34:47.916Z,100226.31
2018-12-23T04:38:52.609Z,100235.03
2018-12-23T04:42:57.352Z,100239.84
2018-12-23T04:47:02.009Z,100239.78
2018-12-23T04:51:06.720Z,100246.27
2018-12-23T04:55:11.649Z,100246.23
2018-12-23T04:59:16.386Z,100259.83
2018-12-23T05:03:21.026Z,100261.98
2018-12-23T05:07:25.743Z,100271.61
2018-12-23T05:11:30.540Z,100279.88
2018-12-23T05:15:35.603Z,100286.84
2018-12-23T05:19:40.326Z,100298.25
2018-12-23T05:23:45.001Z,100305.69
2018-12-23T05:27:49.722Z,100301.75
2018-12-23T05:31:54.431Z,100304.41
2018-12-23T05:35:59.164Z,100309.72
2018-12-23T05:40:03.818Z,100323.20
2018-12-23T05:44:08.527Z,100328.89
2018-12-23T05:48:13.231Z,100344.16
2018-12-23T05:52:17.941Z,100336.22
2018-12-23T05:56:22.652Z,100340.05
2018-12-23T06:00:27.295Z,100356.20
2018-12-23T06:04:31.978Z,100360.46
2018-12-23T06:08:36.662Z,100357.77
2018-12-23T06:12:41.372Z,100371.71
2018-12-23T06:16:46.049Z,100366.36
2018-12-23T06:20:50.716Z,100365.48
2018-12-23T06:24:55.437Z,100380.30
2018-12-23T06:29:00.201Z,100384.23
2018-12-23T06:33:04.932Z,100382.45
2018-12-23T06:37:10.427Z,100377.75
2018-12-23T06:41:16.130Z,100385.99
2018-12-23T06:45:20.802Z,100395.61
2018-12-23T06:49:25.523Z,100406.97
2018-12-23T06:53:30.174Z,100421.48
2018-12-23T06:57:34.913Z,100420.64
2018-12-23T07:01:39.646Z,100415.83
2018-12-23T07:05:44.683Z,100435.50
2018-12-23T07:09:49.428Z,100440.83
2018-12-23T07:13:54.119Z,100432.95
2018-12-23T07:17:58.774Z,100437.41
2018-12-23T07:22:03.537Z,100442.22
2018-12-23T07:26:08.239Z,100448.77
2018-12-23T07:30:12.934Z,100457.56
2018-12-23T07:34:17.650Z,100463.28
2018-12-23T07:38:22.359Z,100467.22
2018-12-23T07:42:27.076Z,100479.46
2018-12-23T07:46:31.785Z,100476.00
2018-12-23T07:50:36.505Z,100474.85
2018-12-23T07:54:41.214Z,100473.62
2018-12-23T07:58:45.909Z,100484.23
2018-12-23T08:02:50.706Z,100475.95
2018-12-23T08:06:55.412Z,100469.91
2018-12-23T08:11:00.114Z,100476.08
2018-12-23T08:15:04.772Z,100475.27
2018-12-23T08:19:09.464Z,100483.30
2018-12-23T08:23:14.170Z,100486.52
2018-12-23T08:27:18.862Z,100486.15
2018-12-23T08:31:23.583Z,100473.57
2018-12-23T08:35:28.216Z,100477.22
2018-12-23T08:39:32.924Z,100481.70
2018-12-23T08:43:37.639Z,100491.40
2018-12-23T08:47:42.389Z,100490.66
2018-12-23T08:51:47.072Z,100497.38
2018-12-23T08:55:52.208Z,100500.54
2018-12-23T08:59:56.918Z,100495.83
2018-12-23T09:04:01.661Z,100501.15
2018-12-23T09:12:43.097Z,100505.36
2018-12-23T09:16:47.855Z,100499.39
2018-12-23T09:20:52.511Z,100507.78
2018-12-23T09:24:57.248Z,100510.06
2018-12-23T09:29:01.965Z,100497.92
2018-12-23T09:33:06.663Z,100495.42
2018-12-23T09:37:11.380Z,100484.96
2018-12-23T09:41:16.093Z,100496.48
2018-12-23T09:45:20.777Z,100504.83
2018-12-23T09:49:25.579Z,100499.69
2018-12-23T09:53:30.256Z,100500.60
2018-12-23T09:57:35.035Z,100494.14
2018-12-23T10:01:39.752Z,100495.05
2018-12-23T10:05:44.429Z,100498.55
2018-12-23T10:09:49.175Z,100492.86
2018-12-23T10:13:53.914Z,100494.17
2018-12-23T10:17:58.626Z,100473.13
2018-12-23T10:22:03.318Z,100471.37
2018-12-23T10:26:08.023Z,100462.20
2018-12-23T10:30:12.719Z,100463.95
2018-12-23T10:34:17.420Z,100460.94
2018-12-23T10:38:42.417Z,100450.80
2018-12-23T10:42:47.207Z,100447.31
2018-12-23T10:46:51.923Z,100426.73
2018-12-23T10:50:56.577Z,100429.86
2018-12-23T10:55:01.268Z,100419.75
2018-12-23T10:59:06.423Z,100402.65
2018-12-23T11:03:11.126Z,100412.27
2018-12-23T11:07:15.826Z,100402.13
2018-12-23T11:11:20.587Z,100391.17
2018-12-23T11:15:25.326Z,100388.98
2018-12-23T11:19:30.048Z,100380.09
2018-12-23T11:23:35.219Z,100373.17
2018-12-23T11:27:39.911Z,100383.61
2018-12-23T11:31:44.605Z,100375.72
2018-12-23T11:35:49.350Z,100382.73
2018-12-23T11:39:54.062Z,100389.39
2018-12-23T11:43:58.734Z,100388.98
2018-12-23T11:48:03.436Z,100386.81
2018-12-23T11:52:08.140Z,100382.89
2018-12-23T11:56:12.861Z,100383.77
2018-12-23T12:00:17.567Z,100398.67
2018-12-23T12:04:22.279Z,100404.84
2018-12-23T12:08:27.157Z,100403.98
2018-12-23T12:12:31.851Z,100400.98
2018-12-23T12:16:36.583Z,100393.61
2018-12-23T12:20:41.289Z,100384.84
2018-12-23T12:24:46.025Z,100366.89
2018-12-23T12:28:50.738Z,100370.83
2018-12-23T12:32:55.384Z,100367.35
2018-12-23T12:37:00.128Z,100362.09
2018-12-23T12:41:04.862Z,100355.14
2018-12-23T12:45:09.614Z,100356.04
2018-12-23T12:49:14.312Z,100354.28
2018-12-23T12:53:18.973Z,100359.10
2018-12-23T12:57:23.780Z,100356.96
2018-12-23T13:01:28.466Z,100360.93
2018-12-23T13:05:33.187Z,100353.94
2018-12-23T13:09:37.838Z,100364.05
2018-12-23T13:13:42.542Z,100349.61
2018-12-23T13:17:47.448Z,100350.97
2018-12-23T13:21:52.212Z,100350.55
2018-12-23T13:25:56.927Z,100345.69
2018-12-23T13:30:01.683Z,100345.66
2018-12-23T13:34:06.415Z,100346.94
2018-12-23T13:38:11.076Z,100339.89
2018-12-23T13:42:53.622Z,100333.70
2018-12-23T13:47:36.427Z,100329.73
2018-12-23T13:52:18.948Z,100323.14
2018-12-23T13:57:01.491Z,100331.86
2018-12-23T14:01:31.232Z,100326.13
2018-12-23T14:06:13.721Z,100325.27
2018-12-23T14:10:56.276Z,100323.56
2018-12-23T14:15:00.952Z,100317.39
2018-12-23T14:19:05.703Z,100316.94
2018-12-23T14:23:10.398Z,100317.28
2018-12-23T14:27:15.224Z,100307.59
2018-12-23T14:31:19.911Z,100300.55
2018-12-23T14:35:24.912Z,100293.48
2018-12-23T14:39:29.723Z,100295.22
2018-12-23T14:43:34.433Z,100291.69
2018-12-23T14:47:40.403Z,100288.14
2018-12-23T14:51:45.622Z,100272.80
2018-12-23T14:55:50.310Z,100276.74
2018-12-23T14:59:55.042Z,100262.70
2018-12-23T15:03:59.733Z,100263.13
2018-12-23T15:08:04.476Z,100256.97
2018-12-23T15:12:09.209Z,100263.93
2018-12-23T15:16:13.874Z,100263.05
2018-12-23T15:20:18.587Z,100248.55
2018-12-23T15:24:23.339Z,100234.53
2018-12-23T15:28:27.993Z,100221.84
2018-12-23T15:32:32.737Z,100229.34
2018-12-23T15:36:37.489Z,100221.84
2018-12-23T15:40:42.245Z,100225.77
2018-12-23T15:44:47.281Z,100217.85
2018-12-23T15:48:52.198Z,100215.64
2018-12-23T15:52:56.936Z,100210.38
2018-12-23T15:57:01.658Z,100212.59
2018-12-23T16:01:06.393Z,100204.70
2018-12-23T16:05:11.111Z,100216.09
2018-12-23T16:09:15.793Z,100209.09
2018-12-23T16:13:20.506Z,100207.77
2018-12-23T16:17:25.223Z,100201.61
2018-12-23T16:21:29.888Z,100184.13
2018-12-23T16:25:34.622Z,100172.72
2018-12-23T16:29:39.305Z,100172.29
2018-12-23T16:33:44.097Z,100184.55
2018-12-23T16:37:49.111Z,100179.30
2018-12-23T16:41:53.801Z,100177.53
2018-12-23T16:45:58.532Z,100170.55
2018-12-23T16:50:03.717Z,100170.98
2018-12-23T16:54:08.355Z,100162.66
2018-12-23T16:58:13.092Z,100157.41
2018-12-23T17:02:17.786Z,100147.75
2018-12-23T17:06:22.518Z,100140.36
2018-12-23T17:10:27.254Z,100132.03
2018-12-23T17:14:31.999Z,100135.99
2018-12-23T17:18:36.711Z,100128.99
2018-12-23T17:22:41.415Z,100126.81
2018-12-23T17:26:46.149Z,100120.23
2018-12-23T17:30:51.000Z,100119.77
2018-12-23T17:34:55.672Z,100116.25
2018-12-23T17:39:00.400Z,100114.48
2018-12-23T17:43:05.130Z,100110.98
2018-12-23T17:47:09.852Z,100099.61
2018-12-23T17:51:14.612Z,100103.11
2018-12-23T17:55:19.348Z,100100.46
2018-12-23T17:59:24.098Z,100091.72
2018-12-23T18:03:28.872Z,100085.55
2018-12-23T18:07:33.611Z,100077.69
2018-12-23T18:11:38.348Z,100077.69
2018-12-23T18:15:43.140Z,100073.30
2018-12-23T18:19:47.878Z,100068.05
2018-12-23T18:23:52.618Z,100066.27
2018-12-23T18:27:57.296Z,100064.03
2018-12-23T18:32:02.021Z,100058.27
2018-12-23T18:36:06.745Z,100057.42
2018-12-23T18:40:11.525Z,100053.44
2018-12-23T18:44:16.306Z,100049.02
2018-12-23T18:48:20.979Z,100045.50
2018-12-23T18:52:25.728Z,100034.97
2018-12-23T18:57:06.911Z,100044.11
2018-12-23T19:01:11.956Z,100040.59
2018-12-23T19:05:16.733Z,100038.79
2018-12-23T19:09:59.299Z,100029.06
2018-12-23T19:14:41.834Z,100027.70
2018-12-23T19:19:24.392Z,100021.03
2018-12-23T19:23:55.310Z,100009.09
2018-12-23T19:28:32.250Z,99998.05
2018-12-23T19:33:18.153Z,99992.72
2018-12-23T19:38:00.779Z,99990.49
2018-12-23T19:42:43.368Z,99987.41
2018-12-23T19:47:25.896Z,99979.92
2018-12-23T19:52:08.476Z,99982.51
2018-12-23T19:56:51.026Z,99969.79
2018-12-23T20:01:18.878Z,99962.78
2018-12-23T20:06:01.476Z,99960.95
2018-12-23T20:10:44.007Z,99946.44
2018-12-23T20:15:26.602Z,99939.36
2018-12-23T20:19:53.716Z,99928.78
2018-12-23T20:24:36.297Z,99927.87
2018-12-23T20:29:18.871Z,99918.61
2018-12-23T20:34:02.626Z,99908.51
2018-12-23T20:38:34.800Z,99900.98
2018-12-23T20:43:17.372Z,99914.92
2018-12-23T20:48:00.056Z,99910.94
2018-12-23T20:52:33.806Z,99901.73
2018-12-23T20:57:10.636Z,99885.95
2018-12-23T21:01:53.244Z,99872.36
2018-12-23T21:06:35.844Z,99862.31
2018-12-23T21:11:18.427Z,99853.12
2018-12-23T21:16:01.313Z,99854.46
2018-12-23T21:20:44.607Z,99847.46
2018-12-23T21:25:27.250Z,99833.90
2018-12-23T21:30:09.851Z,99829.09
2018-12-23T21:34:52.451Z,99826.91
2018-12-23T21:39:34.923Z,99803.21
2018-12-23T21:44:17.456Z,99795.28
2018-12-23T21:49:00.044Z,99786.50
2018-12-23T21:53:42.599Z,99766.74
2018-12-23T21:57:57.593Z,99763.64
2018-12-23T22:02:40.082Z,99757.89
2018-12-23T22:07:22.621Z,99733.80
2018-12-23T22:11:50.970Z,99723.75
2018-12-23T22:20:39.781Z,99690.41
2018-12-23T22:24:44.487Z,99675.48
2018-12-23T22:28:49.229Z,99653.59
2018-12-23T22:32:53.906Z,99629.52
2018-12-23T22:36:58.658Z,99615.04
2018-12-23T22:41:07.466Z,99605.86
2018-12-23T22:45:12.146Z,99598.00
2018-12-23T22:49:16.862Z,99577.89
2018-12-23T22:53:21.577Z,99554.34
2018-12-23T22:57:26.297Z,99549.55
2018-12-23T23:01:30.973Z,99535.59
2018-12-23T23:05:35.712Z,99511.98
2018-12-23T23:09:40.422Z,99508.48
2018-12-23T23:13:45.090Z,99501.09
2018-12-23T23:17:49.828Z,99467.86
2018-12-23T23:21:54.543Z,99444.25
2018-12-23T23:25:59.291Z,99435.91
2018-12-23T23:34:47.891Z,99395.69
2018-12-23T23:43:16.191Z,99376.03
2018-12-23T23:47:20.876Z,99370.80
2018-12-23T23:51:25.588Z,99355.95
2018-12-23T23:55:30.307Z,99358.15
2018-12-23T23:59:34.959Z,99343.31
